Bathgate, North Dakota
Current Conditions -  °F | °C
As of 12:15 PM on Thursday 18 Dec 2014 (Local Time) from K2C8 Reporting Station
Haze Haze  
Wind Chill:   Ceiling: 8500
Heat Index: 16°   Visibility: 5mi
Dew Point: 14°   Wind: 8mph
Humidity: 93%   Direction: 160°SSE
Pressure: 30.19"   Gusts: NA
Location:  48.88°N, 97.48°W
Report Text: K2C8 181815Z AUTO 16007KT 5SM BR BKN085 M09/M10 A3019 RMK AO2
Loading
Personal Weather Stations






























Interactive Weather Map New forecast layout! Learn more

10-Day Weather Forecast

Advertisements
Track Severe Weather on mobile